Time;durP1;ratioP1;P1;durP2;ratioP2;P2;SDS_P1;SDS_P2;PMS_P1;PMS_P2;Temp;Humidity;BMP_temperature;BMP_pressure;BME280_temperature;BME280_humidity;BME280_pressure;Samples;Min_cycle;Max_cycle;Signal;HPM_P1;HPM_P2
2021/06/05 00:00:43;;;;;;;9.97;4.31;;;;;;;16.59;52.50;99604.31;396144;103;1985920;-73
2021/06/05 00:02:04;;;;;;;10.71;4.86;;;;;;;16.56;52.52;99602.08;363651;101;2594951;-74
2021/06/05 00:03:13;;;;;;;9.32;4.36;;;;;;;16.42;52.27;99609.76;376789;105;1962050;-74
2021/06/05 00:04:26;;;;;;;15.08;4.20;;;;;;;16.49;52.50;99597.63;390698;106;1986957;-74
2021/06/05 00:05:39;;;;;;;11.28;4.77;;;;;;;16.37;52.33;99604.21;330403;107;2696010;-73
2021/06/05 00:07:03;;;;;;;8.60;4.72;;;;;;;16.35;52.41;99607.17;347984;107;1963090;-73
2021/06/05 00:08:16;;;;;;;11.98;4.83;;;;;;;16.40;53.10;99601.81;381526;106;2072102;-73
2021/06/05 00:09:23;;;;;;;8.43;4.32;;;;;;;16.28;52.74;99608.42;368005;109;1969927;-73
2021/06/05 00:10:32;;;;;;;10.66;4.68;;;;;;;16.24;53.00;99605.34;367463;109;1960974;-70
2021/06/05 00:11:44;;;;;;;10.91;4.81;;;;;;;16.33;53.40;99606.61;402290;101;1984044;-72
2021/06/05 00:12:57;;;;;;;10.06;4.66;;;;;;;16.31;53.62;99602.48;396635;103;1985917;-73
2021/06/05 00:14:20;;;;;;;11.00;5.70;;;;;;;16.17;53.92;99600.05;373846;107;1963830;-72
2021/06/05 00:15:37;;;;;;;11.54;4.54;;;;;;;16.26;53.74;99600.48;352111;104;2746005;-72
2021/06/05 00:16:47;;;;;;;10.83;4.67;;;;;;;16.13;53.66;99606.23;328994;107;2779978;-73
2021/06/05 00:18:12;;;;;;;9.18;4.64;;;;;;;16.10;53.71;99599.37;366979;109;1961956;-73
2021/06/05 00:19:19;;;;;;;8.92;4.94;;;;;;;16.05;54.00;99597.36;370600;109;1964897;-73
2021/06/05 00:20:30;;;;;;;7.54;3.84;;;;;;;16.04;54.57;99595.72;370018;106;1960997;-73
2021/06/05 00:21:43;;;;;;;11.63;4.06;;;;;;;16.13;54.44;99600.78;395823;104;1985926;-74
2021/06/05 00:22:49;;;;;;;8.47;4.37;;;;;;;16.01;54.27;99593.48;341411;107;2396980;-74
2021/06/05 00:24:01;;;;;;;13.51;5.56;;;;;;;16.11;54.70;99592.02;390537;104;2073016;-74
2021/06/05 00:25:09;;;;;;;11.84;4.50;;;;;;;15.98;54.64;99593.98;376506;105;1961794;-74
2021/06/05 00:26:35;;;;;;;8.79;4.85;;;;;;;15.96;54.59;99590.67;322872;107;2860966;-74
2021/06/05 00:27:41;;;;;;;9.94;5.09;;;;;;;15.94;54.96;99597.42;376464;106;1962967;-73
2021/06/05 00:28:46;;;;;;;10.36;4.91;;;;;;;15.93;54.87;99602.05;377267;106;1960872;-74
2021/06/05 00:29:52;;;;;;;9.00;3.97;;;;;;;15.90;54.84;99597.06;377910;106;1961970;-73
2021/06/05 00:31:05;;;;;;;8.74;4.07;;;;;;;16.01;55.25;99592.67;349322;104;2781955;-73
2021/06/05 00:32:11;;;;;;;8.43;4.22;;;;;;;15.87;55.05;99592.11;372732;107;1962017;-74
2021/06/05 00:33:25;;;;;;;11.76;5.22;;;;;;;15.96;55.36;99592.57;385275;106;2072830;-74
2021/06/05 00:34:30;;;;;;;11.19;4.46;;;;;;;15.84;55.24;99595.32;301378;108;2262792;-73
2021/06/05 00:35:55;;;;;;;13.26;5.45;;;;;;;15.82;55.39;99592.86;368274;109;1963951;-73
2021/06/05 00:37:06;;;;;;;12.89;5.75;;;;;;;15.90;55.74;99599.78;386044;106;1964933;-73
2021/06/05 00:38:12;;;;;;;11.77;5.53;;;;;;;15.77;55.64;99592.75;368590;109;1962027;-73
2021/06/05 00:39:18;;;;;;;10.03;4.88;;;;;;;15.76;55.67;99593.80;364320;110;1961973;-74
2021/06/05 00:40:34;;;;;;;9.84;4.78;;;;;;;15.83;55.80;99589.05;349525;104;2659007;-73
2021/06/05 00:41:41;;;;;;;11.02;4.99;;;;;;;15.70;55.79;99592.05;365173;107;2910949;-72
2021/06/05 00:42:47;;;;;;;11.09;4.59;;;;;;;15.69;55.86;99600.45;376301;107;1962066;-74
2021/06/05 00:44:03;;;;;;;11.93;5.51;;;;;;;15.78;56.19;99591.67;393770;104;1985975;-72
2021/06/05 00:45:12;;;;;;;12.10;5.38;;;;;;;15.65;56.06;99605.53;373558;107;1961946;-73
2021/06/05 00:46:22;;;;;;;10.45;5.67;;;;;;;15.65;56.33;99607.44;375011;107;1962004;-73
2021/06/05 00:47:35;;;;;;;11.87;6.07;;;;;;;15.73;56.90;99605.19;396300;104;1985813;-71
2021/06/05 00:48:42;;;;;;;11.22;5.31;;;;;;;15.60;56.55;99608.97;318017;109;2869866;-72
2021/06/05 00:49:55;;;;;;;9.96;4.88;;;;;;;15.70;56.75;99602.13;396924;104;1984889;-74
2021/06/05 00:51:02;;;;;;;9.53;5.31;;;;;;;15.55;56.54;99600.69;338496;105;2611983;-73
2021/06/05 00:52:28;;;;;;;8.52;4.72;;;;;;;15.55;56.68;99606.14;372918;107;1962031;-72
2021/06/05 00:53:42;;;;;;;10.45;5.24;;;;;;;15.65;56.53;99600.09;385343;104;1987013;-73
2021/06/05 00:54:49;;;;;;;9.41;4.76;;;;;;;15.51;56.30;99596.81;379453;105;1961958;-73
2021/06/05 00:55:59;;;;;;;8.38;5.27;;;;;;;15.53;56.88;99602.00;379452;105;1963995;-73
2021/06/05 00:57:12;;;;;;;12.05;5.81;;;;;;;15.64;56.59;99606.61;387005;104;2947974;-73
2021/06/05 00:58:19;;;;;;;10.86;4.98;;;;;;;15.51;56.56;99595.98;375828;106;1960776;-72
2021/06/05 00:59:35;;;;;;;9.99;4.29;;;;;;;15.63;57.08;99604.12;335485;106;2869930;-72
2021/06/05 01:00:54;;;;;;;12.70;4.85;;;;;;;15.51;56.44;99601.44;367383;107;1962067;-73
2021/06/05 01:02:35;;;;;;;11.26;5.11;;;;;;;15.53;56.52;99605.57;357544;111;1961923;-73
2021/06/05 01:03:48;;;;;;;14.22;6.06;;;;;;;15.65;56.43;99600.09;329034;106;2235918;-73
2021/06/05 01:04:55;;;;;;;10.77;4.73;;;;;;;15.52;56.38;99600.36;360176;112;1962049;-71
2021/06/05 01:06:26;;;;;;;14.07;5.32;;;;;;;15.65;56.44;99601.98;373080;104;2375131;-73
2021/06/05 01:07:34;;;;;;;11.90;5.82;;;;;;;15.54;56.39;99599.05;329425;107;2054018;-73
2021/06/05 01:09:17;;;;;;;10.81;4.92;;;;;;;15.53;56.24;99602.85;334333;109;2603020;-73
2021/06/05 01:10:33;;;;;;;10.82;5.54;;;;;;;15.65;56.46;99596.54;397907;104;1985915;-73
2021/06/05 01:11:57;;;;;;;8.08;4.44;;;;;;;15.52;56.08;99597.63;372683;107;1963976;-72
2021/06/05 01:13:13;;;;;;;9.93;4.68;;;;;;;15.64;56.35;99597.59;392947;104;1985965;-73
2021/06/05 01:14:26;;;;;;;9.79;5.35;;;;;;;15.49;55.99;99596.22;375435;107;1961961;-72
2021/06/05 01:15:40;;;;;;;9.06;5.19;;;;;;;15.48;56.06;99600.02;369659;108;1962034;-73
2021/06/05 01:16:56;;;;;;;9.94;5.02;;;;;;;15.60;56.13;99595.35;390073;104;1986917;-74
2021/06/05 01:18:09;;;;;;;8.82;5.16;;;;;;;15.46;56.02;99593.98;366785;109;1961958;-73
2021/06/05 01:19:35;;;;;;;11.42;5.11;;;;;;;15.46;56.16;99595.88;368643;107;1961967;-73
2021/06/05 01:20:57;;;;;;;10.60;5.12;;;;;;;15.54;56.34;99596.33;393953;104;1985924;-72
2021/06/05 01:22:10;;;;;;;11.62;6.13;;;;;;;15.41;56.56;99593.05;363057;106;2945983;-73
2021/06/05 01:23:29;;;;;;;9.04;5.46;;;;;;;15.51;56.50;99596.81;380403;108;1985964;-73
2021/06/05 01:24:57;;;;;;;13.53;5.46;;;;;;;15.48;56.56;99599.16;398562;104;1986962;-73
2021/06/05 01:26:14;;;;;;;10.72;5.73;;;;;;;15.35;56.42;99597.55;347635;106;1965884;-72
2021/06/05 01:27:30;;;;;;;11.42;5.36;;;;;;;15.33;56.41;99591.52;379741;105;1963930;-73
2021/06/05 01:29:11;;;;;;;10.79;5.24;;;;;;;15.42;56.71;99592.79;392889;104;1988881;-72
2021/06/05 01:30:25;;;;;;;14.49;6.07;;;;;;;15.29;56.45;99596.59;356726;101;1960923;-72
2021/06/05 01:31:37;;;;;;;13.49;6.27;;;;;;;15.27;56.72;99593.30;348520;114;1960788;-73
2021/06/05 01:32:49;;;;;;;10.41;5.54;;;;;;;15.35;56.90;99592.94;352978;104;2041988;-72
2021/06/05 01:33:56;;;;;;;12.94;6.01;;;;;;;15.22;57.08;99597.81;348541;107;1960835;-72
2021/06/05 01:35:12;;;;;;;9.60;5.73;;;;;;;15.31;57.07;99593.64;402483;101;1984936;-72
2021/06/05 01:36:22;;;;;;;13.49;6.71;;;;;;;15.16;57.00;99589.53;331461;103;2846995;-72
2021/06/05 01:37:28;;;;;;;12.40;5.82;;;;;;;15.15;57.08;99593.30;388079;103;1961833;-73
2021/06/05 01:38:46;;;;;;;15.83;6.84;;;;;;;15.25;57.40;99589.98;347710;104;2074999;-71
2021/06/05 01:39:53;;;;;;;12.49;5.70;;;;;;;15.13;57.34;99589.16;369949;109;1960935;-73
2021/06/05 01:41:07;;;;;;;12.93;6.29;;;;;;;15.21;57.59;99588.79;344638;104;2114037;-74
2021/06/05 01:42:20;;;;;;;16.53;6.37;;;;;;;15.09;57.47;99588.81;374662;106;1961964;-71
2021/06/05 01:43:48;;;;;;;10.71;6.64;;;;;;;15.08;57.52;99595.33;369845;107;1962002;-72
2021/06/05 01:45:02;;;;;;;12.63;6.23;;;;;;;15.17;57.73;99593.89;365080;104;2458063;-73
2021/06/05 01:46:07;;;;;;;14.80;5.91;;;;;;;15.05;57.69;99595.78;375472;106;1961970;-73
2021/06/05 01:47:14;;;;;;;12.23;6.12;;;;;;;15.04;57.76;99591.41;373354;107;1961964;-73
2021/06/05 01:48:27;;;;;;;11.07;5.91;;;;;;;15.15;57.81;99590.58;393286;104;1964959;-72
2021/06/05 01:49:33;;;;;;;15.16;6.35;;;;;;;15.05;57.76;99590.34;375519;105;1961881;-72
2021/06/05 01:50:44;;;;;;;13.83;6.32;;;;;;;15.05;57.84;99590.34;351792;105;1962010;-71
2021/06/05 01:51:54;;;;;;;13.13;7.02;;;;;;;15.08;58.04;99595.33;331299;107;2741989;-73
2021/06/05 01:53:10;;;;;;;10.94;6.43;;;;;;;15.18;58.12;99590.09;390369;103;1985891;-71
2021/06/05 01:54:19;;;;;;;13.74;5.93;;;;;;;15.09;57.89;99593.44;353862;107;2294920;-73
2021/06/05 01:55:36;;;;;;;9.94;5.75;;;;;;;15.09;57.81;99590.71;352005;105;2321991;-72
2021/06/05 01:56:48;;;;;;;13.24;5.42;;;;;;;15.07;57.49;99590.94;375378;105;1962011;-73
2021/06/05 01:58:00;;;;;;;11.46;5.38;;;;;;;15.07;57.33;99590.94;344810;107;2342984;-71
2021/06/05 01:59:14;;;;;;;11.14;5.43;;;;;;;15.16;57.31;99591.39;383766;106;1986022;-74
2021/06/05 02:00:31;;;;;;;11.96;6.29;;;;;;;15.01;57.18;99589.17;368089;109;1961984;-72
2021/06/05 02:01:39;;;;;;;11.92;6.02;;;;;;;15.01;57.33;99589.17;366800;109;1961986;-70
2021/06/05 02:02:52;;;;;;;15.17;6.17;;;;;;;15.08;57.52;99583.59;355835;103;2522019;-72
2021/06/05 02:04:02;;;;;;;15.89;6.18;;;;;;;14.95;57.42;99593.67;317157;109;2884051;-73
2021/06/05 02:05:14;;;;;;;12.39;6.21;;;;;;;15.05;57.43;99589.52;397485;104;1986070;-72
2021/06/05 02:06:25;;;;;;;10.09;5.37;;;;;;;14.91;57.47;99588.94;379838;105;1962985;-71
2021/06/05 02:07:53;;;;;;;12.44;6.29;;;;;;;14.90;57.18;99588.11;377513;105;1961921;-72
2021/06/05 02:09:04;;;;;;;9.52;5.78;;;;;;;14.89;57.25;99580.17;377830;107;1960931;-73
2021/06/05 02:10:18;;;;;;;11.31;5.71;;;;;;;14.99;57.20;99585.03;333649;108;2760968;-73
2021/06/05 02:11:28;;;;;;;12.43;5.84;;;;;;;14.86;57.21;99586.09;361689;112;1961862;-71
2021/06/05 02:12:36;;;;;;;10.72;5.94;;;;;;;14.85;57.38;99585.27;357345;112;1962001;-74
2021/06/05 02:13:52;;;;;;;10.61;5.93;;;;;;;14.93;57.50;99586.81;394532;104;1972012;-73
2021/06/05 02:15:13;;;;;;;9.68;5.52;;;;;;;14.81;57.39;99592.23;376211;105;1963983;-73
2021/06/05 02:16:35;;;;;;;12.53;6.24;;;;;;;14.91;57.41;99580.77;392950;103;1985931;-72
2021/06/05 02:17:49;;;;;;;12.12;5.95;;;;;;;14.89;57.32;99583.72;390185;103;2071932;-72
2021/06/05 02:19:19;;;;;;;13.10;5.63;;;;;;;14.78;57.30;99587.27;375078;105;1962070;-72
2021/06/05 02:20:59;;;;;;;14.23;5.23;;;;;;;14.85;57.42;99582.55;379943;105;2961062;-71
2021/06/05 02:22:08;;;;;;;14.51;5.24;;;;;;;14.75;57.30;99589.64;372292;107;1961952;-71
2021/06/05 02:23:36;;;;;;;13.61;5.78;;;;;;;14.71;57.27;99581.95;358699;107;1964002;-72
2021/06/05 02:24:53;;;;;;;15.71;5.84;;;;;;;14.82;57.26;99577.59;392806;106;1985987;-71
2021/06/05 02:26:00;;;;;;;9.77;6.13;;;;;;;14.70;57.08;99583.00;373587;107;1962976;-72
2021/06/05 02:27:19;;;;;;;14.26;6.71;;;;;;;14.82;57.69;99572.14;337270;104;2148964;-72
2021/06/05 02:28:28;;;;;;;9.98;5.40;;;;;;;14.72;57.86;99580.06;366310;109;1961966;-74
2021/06/05 02:29:41;;;;;;;13.91;5.17;;;;;;;14.83;57.30;99571.07;393584;104;1986886;-72
2021/06/05 02:30:50;;;;;;;11.87;6.03;;;;;;;14.72;57.23;99578.16;374759;107;1961929;-73
2021/06/05 02:32:18;;;;;;;12.45;6.01;;;;;;;14.73;57.51;99573.55;372084;107;1961915;-73
2021/06/05 02:33:31;;;;;;;11.54;4.99;;;;;;;14.85;57.33;99576.28;386601;105;1986014;-74
2021/06/05 02:34:38;;;;;;;14.75;6.81;;;;;;;14.75;57.04;99581.48;369633;107;1963023;-73
2021/06/05 02:35:51;;;;;;;11.42;6.76;;;;;;;14.87;57.71;99576.86;392870;104;1987106;-73
2021/06/05 02:37:08;;;;;;;15.14;6.68;;;;;;;14.76;57.65;99580.41;374051;107;1961980;-71
2021/06/05 02:38:20;;;;;;;14.37;6.62;;;;;;;14.86;58.20;99578.75;396172;104;1988023;-73
2021/06/05 02:39:27;;;;;;;16.89;6.40;;;;;;;14.76;58.08;99583.13;376861;105;1961983;-72
2021/06/05 02:40:51;;;;;;;12.81;6.54;;;;;;;14.77;58.17;99573.92;377216;105;1964121;-73
2021/06/05 02:41:59;;;;;;;14.38;7.21;;;;;;;14.76;58.08;99574.97;326429;107;2782084;-73
2021/06/05 02:43:18;;;;;;;12.50;5.72;;;;;;;14.87;58.42;99580.42;388225;106;1986928;-71
2021/06/05 02:44:28;;;;;;;15.16;7.23;;;;;;;14.76;57.60;99575.78;372620;107;1962878;-72
2021/06/05 02:45:43;;;;;;;14.68;6.83;;;;;;;14.77;58.16;99577.47;367525;107;1964842;-72
2021/06/05 02:46:58;;;;;;;11.01;4.99;;;;;;;14.87;57.88;99572.27;394353;104;1986897;-71
2021/06/05 02:48:05;;;;;;;8.33;4.39;;;;;;;14.77;57.51;99582.08;376366;107;1962963;-72
2021/06/05 02:49:31;;;;;;;12.22;5.08;;;;;;;14.77;57.31;99585.62;340923;106;2568985;-72
2021/06/05 02:50:48;;;;;;;18.16;6.83;;;;;;;14.90;57.20;99579.95;390768;104;1988725;-70
2021/06/05 02:52:03;;;;;;;13.40;6.16;;;;;;;14.81;57.47;99575.09;346311;107;1961987;-72
2021/06/05 02:53:17;;;;;;;16.26;7.39;;;;;;;14.95;57.66;99576.50;391809;104;1986908;-71
2021/06/05 02:54:24;;;;;;;14.91;6.54;;;;;;;14.86;57.98;99575.21;350958;106;2891040;-72
2021/06/05 02:55:48;;;;;;;14.67;6.32;;;;;;;14.87;57.92;99574.98;324249;108;2781884;-72
2021/06/05 02:57:04;;;;;;;17.09;7.10;;;;;;;15.03;57.68;99575.31;395114;104;1964895;-72
2021/06/05 02:58:13;;;;;;;22.72;8.01;;;;;;;14.94;57.95;99574.86;370649;109;1961911;-73
2021/06/05 02:59:26;;;;;;;16.79;7.45;;;;;;;15.08;58.12;99579.01;394148;104;1985984;-72
2021/06/05 03:00:40;;;;;;;26.38;7.49;;;;;;;15.01;58.01;99580.19;365172;107;2902015;-72
2021/06/05 03:01:48;;;;;;;15.36;5.94;;;;;;;14.90;57.75;99560.09;376358;107;1962000;-72
2021/06/05 03:02:54;;;;;;;15.82;6.18;;;;;;;15.03;57.12;99576.17;343876;110;1961966;-73
2021/06/05 03:04:08;;;;;;;11.43;5.41;;;;;;;15.17;56.96;99582.19;392599;104;1966910;-74
2021/06/05 03:05:13;;;;;;;13.31;5.20;;;;;;;15.08;56.70;99578.16;337895;106;1968890;-72
2021/06/05 03:06:25;;;;;;;13.21;6.05;;;;;;;15.20;56.58;99578.16;399975;104;1984827;-72
2021/06/05 03:07:31;;;;;;;13.76;4.98;;;;;;;15.09;56.51;99582.55;379893;105;1960916;-73
2021/06/05 03:08:55;;;;;;;13.07;5.34;;;;;;;15.12;56.42;99582.89;379050;106;1960835;-72
2021/06/05 03:10:00;;;;;;;12.36;6.29;;;;;;;14.68;56.28;99508.17;371088;108;1960888;-73
2021/06/05 03:11:16;;;;;;;11.32;5.28;;;;;;;15.26;56.32;99580.74;396160;104;1985981;-72
2021/06/05 03:12:29;;;;;;;10.56;4.93;;;;;;;15.27;56.10;99574.25;371646;102;2430072;-73
2021/06/05 03:13:53;;;;;;;9.58;4.70;;;;;;;15.18;56.00;99586.55;376987;107;1962117;-72
2021/06/05 03:15:08;;;;;;;10.31;5.69;;;;;;;15.31;55.73;99582.75;397081;104;1962022;-72
2021/06/05 03:16:16;;;;;;;10.02;5.06;;;;;;;15.21;55.84;99586.06;326121;105;2081912;-73
2021/06/05 03:17:39;;;;;;;11.21;5.67;;;;;;;15.21;55.75;99579.80;319840;105;2138903;-73
2021/06/05 03:18:45;;;;;;;11.90;6.18;;;;;;;15.21;55.73;99587.97;380044;105;1962003;-73
2021/06/05 03:19:58;;;;;;;13.59;5.37;;;;;;;15.35;55.74;99584.77;390946;104;2074035;-72
2021/06/05 03:21:08;;;;;;;10.19;4.64;;;;;;;15.27;55.59;99587.01;300228;106;2272963;-72
2021/06/05 03:22:20;;;;;;;10.81;5.05;;;;;;;15.42;55.49;99590.06;389943;104;1989976;-72
2021/06/05 03:23:30;;;;;;;10.67;5.51;;;;;;;15.33;55.36;99591.52;376257;106;1961959;-72
2021/06/05 03:24:55;;;;;;;14.77;5.51;;;;;;;15.33;55.28;99584.17;372261;106;1961803;-73
2021/06/05 03:26:02;;;;;;;10.78;4.63;;;;;;;15.36;55.33;99588.31;370918;108;1962874;-73
2021/06/05 03:27:15;;;;;;;11.37;5.40;;;;;;;15.48;55.20;99583.69;376882;106;1985891;-73
2021/06/05 03:28:23;;;;;;;13.25;5.31;;;;;;;15.38;55.32;99583.46;363366;111;1962062;-73
2021/06/05 03:29:30;;;;;;;13.42;5.69;;;;;;;15.41;55.23;99588.42;327412;112;2458877;-72
2021/06/05 03:30:42;;;;;;;8.98;4.89;;;;;;;15.54;55.19;99582.71;392562;104;1964978;-73
2021/06/05 03:31:47;;;;;;;9.98;4.78;;;;;;;15.44;54.94;99585.22;375491;106;1969062;-74
2021/06/05 03:33:22;;;;;;;11.59;5.26;;;;;;;15.59;54.70;99582.00;370037;99;2703043;-72
2021/06/05 03:34:27;;;;;;;11.02;4.61;;;;;;;15.48;54.65;99589.13;394245;101;1961974;-72
2021/06/05 03:35:53;;;;;;;10.19;5.17;;;;;;;15.51;54.58;99583.20;397315;101;1963895;-73
2021/06/05 03:37:08;;;;;;;12.18;4.44;;;;;;;15.65;54.58;99582.92;334042;104;2217876;-73
2021/06/05 03:38:22;;;;;;;8.40;4.58;;;;;;;15.67;54.46;99587.06;351636;99;2192973;-73
2021/06/05 03:39:48;;;;;;;9.88;5.19;;;;;;;15.58;54.37;99583.88;390170;102;1961899;-74
2021/06/05 03:41:06;;;;;;;11.64;5.04;;;;;;;15.71;54.53;99579.26;389889;104;1986041;-73
2021/06/05 03:42:12;;;;;;;13.20;4.82;;;;;;;15.60;54.40;99589.09;375059;106;1963931;-73
2021/06/05 03:43:36;;;;;;;12.61;4.73;;;;;;;15.62;54.36;99584.23;367413;106;1961950;-73
2021/06/05 03:44:42;;;;;;;10.81;4.98;;;;;;;15.66;54.38;99584.56;375554;106;1962932;-72
2021/06/05 03:45:55;;;;;;;11.77;5.14;;;;;;;15.79;54.32;99581.59;349625;104;2737937;-73
2021/06/05 03:47:01;;;;;;;9.66;4.52;;;;;;;15.70;54.37;99583.89;374875;105;1963020;-74
2021/06/05 03:48:09;;;;;;;11.13;5.41;;;;;;;15.70;54.29;99581.16;367697;107;1961984;-72
2021/06/05 03:49:22;;;;;;;8.73;4.44;;;;;;;15.85;54.19;99579.80;396456;104;1985992;-72
2021/06/05 03:50:33;;;;;;;7.94;3.86;;;;;;;15.76;54.20;99574.73;374494;105;1961996;-72
2021/06/05 03:51:41;;;;;;;7.70;4.25;;;;;;;15.80;54.08;99583.27;325157;106;2822000;-72
2021/06/05 03:52:47;;;;;;;10.13;4.57;;;;;;;15.82;54.16;99575.66;379035;106;1962912;-72
2021/06/05 03:53:59;;;;;;;10.96;4.93;;;;;;;15.98;54.04;99580.36;392421;104;1987091;-73
2021/06/05 03:55:08;;;;;;;10.34;4.59;;;;;;;15.90;54.05;99575.27;337529;107;2586988;-73
2021/06/05 03:56:15;;;;;;;9.03;4.59;;;;;;;15.95;53.97;99577.27;375352;107;1962027;-72
2021/06/05 03:57:23;;;;;;;13.48;5.36;;;;;;;16.01;53.84;99579.05;344899;107;2473921;-73
2021/06/05 03:58:40;;;;;;;10.68;4.05;;;;;;;16.17;53.88;99575.53;349733;104;2715018;-73
2021/06/05 03:59:46;;;;;;;8.14;3.81;;;;;;;16.09;53.73;99589.55;303751;106;2260915;-73
2021/06/05 04:00:52;;;;;;;11.70;5.06;;;;;;;16.06;53.65;99565.48;376815;106;1961925;-72
2021/06/05 04:02:05;;;;;;;10.53;4.76;;;;;;;16.30;53.62;99573.55;392652;104;1985932;-74
2021/06/05 04:03:11;;;;;;;11.77;4.82;;;;;;;16.21;53.61;99587.58;370977;107;1961951;-74
2021/06/05 04:04:19;;;;;;;12.18;3.44;;;;;;;16.25;53.70;99583.30;364642;108;1961987;-73
2021/06/05 04:05:33;;;;;;;9.82;4.62;;;;;;;16.40;53.68;99577.27;356555;104;2576947;-73
2021/06/05 04:06:39;;;;;;;9.12;4.68;;;;;;;16.34;53.75;99580.17;374801;107;1964935;-73
2021/06/05 04:07:52;;;;;;;13.82;5.78;;;;;;;16.47;53.71;99577.95;381648;104;2951151;-74
2021/06/05 04:09:04;;;;;;;10.76;5.37;;;;;;;16.41;53.69;99583.58;356297;108;1961888;-74
2021/06/05 04:10:11;;;;;;;6.83;3.59;;;;;;;16.45;53.66;99577.36;368851;107;1961943;-75
2021/06/05 04:11:32;;;;;;;10.37;4.18;;;;;;;16.63;53.64;99589.13;396547;104;1985982;-72
2021/06/05 04:12:38;;;;;;;13.24;5.12;;;;;;;16.55;53.48;99582.17;362438;106;1961035;-73
2021/06/05 04:13:51;;;;;;;15.67;6.18;;;;;;;16.72;53.73;99576.71;388784;106;1961908;-72
2021/06/05 04:14:57;;;;;;;14.35;4.81;;;;;;;16.66;53.69;99578.53;324049;107;2815895;-72
2021/06/05 04:16:03;;;;;;;11.32;5.83;;;;;;;16.71;53.68;99581.34;341391;107;1960920;-73
2021/06/05 04:17:10;;;;;;;12.61;5.59;;;;;;;16.77;53.62;99581.42;372779;107;1962979;-70
2021/06/05 04:18:26;;;;;;;13.81;6.08;;;;;;;16.92;53.44;99574.34;346458;104;2294058;-74
2021/06/05 04:19:31;;;;;;;11.62;5.29;;;;;;;16.85;53.42;99579.13;374235;105;1961951;-72
2021/06/05 04:20:41;;;;;;;12.49;5.18;;;;;;;16.91;53.32;99578.16;352907;107;2325008;-72
2021/06/05 04:21:55;;;;;;;9.57;4.59;;;;;;;17.06;53.12;99572.08;360396;106;1985919;-71
2021/06/05 04:23:02;;;;;;;9.71;4.85;;;;;;;16.98;53.10;99579.88;361043;110;1962036;-72
2021/06/05 04:24:14;;;;;;;7.79;3.98;;;;;;;17.11;51.93;99568.60;397331;103;1966047;-72
2021/06/05 04:25:19;;;;;;;14.14;4.12;;;;;;;17.02;52.53;99573.67;373205;107;1962063;-72
2021/06/05 04:26:27;;;;;;;11.73;5.07;;;;;;;17.06;52.56;99571.26;376529;107;1961910;-73
2021/06/05 04:27:33;;;;;;;11.16;3.93;;;;;;;17.10;52.47;99567.78;324880;107;2753929;-72
2021/06/05 04:28:45;;;;;;;7.03;3.34;;;;;;;17.29;52.19;99572.95;394416;104;1961878;-73
2021/06/05 04:29:51;;;;;;;10.63;3.98;;;;;;;17.19;52.15;99568.17;376307;106;1970041;-73
2021/06/05 04:31:04;;;;;;;8.19;3.77;;;;;;;17.35;51.78;99571.94;356190;103;2594993;-72
2021/06/05 04:32:10;;;;;;;9.66;4.11;;;;;;;17.29;51.54;99575.69;374932;105;1961911;-72
2021/06/05 04:33:34;;;;;;;10.60;4.02;;;;;;;17.32;51.09;99569.72;343113;107;2396974;-72
2021/06/05 04:34:46;;;;;;;7.51;4.07;;;;;;;16.48;51.69;99404.27;393242;103;1985956;-74
2021/06/05 04:35:53;;;;;;;11.62;4.66;;;;;;;17.43;51.64;99570.67;374072;107;1962016;-73
2021/06/05 04:37:06;;;;;;;8.17;4.11;;;;;;;17.58;51.88;99570.88;392455;104;1986983;-74
2021/06/05 04:38:12;;;;;;;8.47;4.21;;;;;;;17.51;51.72;99567.50;378227;107;1961977;-72
2021/06/05 04:39:35;;;;;;;9.48;4.49;;;;;;;17.54;51.46;99573.30;376808;106;1961655;-73
2021/06/05 04:40:49;;;;;;;6.77;3.56;;;;;;;17.72;51.45;99560.38;394724;104;1986969;-72
2021/06/05 04:41:55;;;;;;;6.69;3.56;;;;;;;17.65;50.93;99560.59;336055;109;1963995;-73
2021/06/05 04:43:09;;;;;;;8.74;4.38;;;;;;;17.81;50.37;99561.63;387001;102;1959726;-73
2021/06/05 04:44:15;;;;;;;8.39;3.27;;;;;;;17.72;49.63;99563.93;323574;112;2645920;-74
2021/06/05 04:45:40;;;;;;;10.36;3.85;;;;;;;17.75;49.66;99566.15;323418;108;2720001;-72
2021/06/05 04:46:47;;;;;;;7.07;3.02;;;;;;;17.82;49.59;99559.71;368602;108;1963927;-73
2021/06/05 04:48:00;;;;;;;7.80;3.88;;;;;;;17.96;49.28;99558.21;333811;103;2233037;-72
2021/06/05 04:49:08;;;;;;;8.31;3.96;;;;;;;17.91;49.73;99555.42;373002;105;1965032;-73
2021/06/05 04:50:23;;;;;;;10.07;3.74;;;;;;;18.08;49.24;99558.08;341534;105;2110934;-73
2021/06/05 04:51:30;;;;;;;7.81;3.79;;;;;;;18.01;48.71;99561.00;368097;108;1963982;-72
2021/06/05 04:52:55;;;;;;;9.38;3.47;;;;;;;18.06;48.87;99560.24;363799;109;1961980;-74
2021/06/05 04:54:09;;;;;;;8.42;3.49;;;;;;;18.24;48.89;99557.95;385825;106;1985917;-72
2021/06/05 04:55:16;;;;;;;5.96;3.27;;;;;;;18.16;48.29;99555.70;361114;108;2929980;-72
2021/06/05 04:56:35;;;;;;;7.58;3.73;;;;;;;18.32;48.06;99553.93;377082;109;1986099;-73
2021/06/05 04:57:51;;;;;;;5.78;2.92;;;;;;;18.38;48.21;99549.33;384440;103;1986007;-74
2021/06/05 04:59:18;;;;;;;8.51;3.69;;;;;;;18.31;48.10;99552.30;370529;107;1961995;-73
2021/06/05 05:00:37;;;;;;;8.00;3.13;;;;;;;18.49;48.15;99550.23;365525;101;2630987;-74
2021/06/05 05:01:43;;;;;;;11.47;3.42;;;;;;;18.40;47.88;99555.38;387177;103;1964945;-72
2021/06/05 05:03:09;;;;;;;5.26;2.35;;;;;;;18.45;47.57;99553.50;329991;105;2114975;-71
2021/06/05 05:04:16;;;;;;;5.54;2.66;;;;;;;18.49;46.93;99550.23;384108;105;1961942;-73
2021/06/05 05:05:21;;;;;;;9.43;4.01;;;;;;;18.53;46.53;99552.20;382417;105;1962000;-74
2021/06/05 05:06:34;;;;;;;7.77;3.22;;;;;;;18.65;46.59;99550.09;384884;105;2071842;-73
2021/06/05 05:07:40;;;;;;;8.21;3.48;;;;;;;18.60;46.61;99554.70;369518;109;1962021;-73
2021/06/05 05:09:14;;;;;;;6.66;3.03;;;;;;;18.73;45.76;99543.31;373921;99;2608051;-73
2021/06/05 05:10:25;;;;;;;9.65;3.22;;;;;;;18.66;46.33;99551.76;399411;100;1961957;-74
2021/06/05 05:12:13;;;;;;;6.63;2.70;;;;;;;18.80;46.03;99551.34;362274;103;2551955;-74
2021/06/05 05:13:22;;;;;;;7.31;2.81;;;;;;;18.68;46.21;99559.69;360942;107;1961963;-73
2021/06/05 05:14:45;;;;;;;8.20;2.89;;;;;;;18.64;46.30;99551.19;373479;108;1961928;-74
2021/06/05 05:15:52;;;;;;;8.77;3.07;;;;;;;18.71;46.19;99553.72;370976;107;1961977;-73
2021/06/05 05:17:10;;;;;;;7.14;3.07;;;;;;;18.89;45.89;99549.75;385686;106;1986957;-73
2021/06/05 05:18:16;;;;;;;7.48;3.06;;;;;;;18.82;45.95;99549.17;367915;108;1961944;-73
2021/06/05 05:19:29;;;;;;;8.44;2.95;;;;;;;18.97;46.05;99545.69;331589;106;2219990;-73
2021/06/05 05:20:38;;;;;;;11.27;2.88;;;;;;;18.88;45.20;99548.93;368367;107;1961948;-74
2021/06/05 05:22:02;;;;;;;11.92;2.71;;;;;;;18.89;45.58;99550.59;367160;108;1962011;-73
2021/06/05 05:23:10;;;;;;;7.80;2.86;;;;;;;18.93;45.38;99548.14;370634;108;1962000;-73
2021/06/05 05:24:24;;;;;;;7.82;2.77;;;;;;;19.02;44.86;99546.55;395218;104;1985995;-74
2021/06/05 05:25:30;;;;;;;12.06;2.67;;;;;;;18.93;45.22;99547.33;341902;107;2544975;-74
2021/06/05 05:26:44;;;;;;;17.53;3.00;;;;;;;19.06;45.14;99544.94;385718;106;1985927;-74
2021/06/05 05:27:50;;;;;;;8.88;2.67;;;;;;;18.95;44.37;99543.23;359447;109;2859003;-74
2021/06/05 05:29:14;;;;;;;6.44;1.99;;;;;;;19.01;44.53;99546.83;365472;110;1962022;-71
2021/06/05 05:30:30;;;;;;;7.00;2.71;;;;;;;19.16;44.26;99535.13;390840;103;2071918;-72
2021/06/05 05:31:35;;;;;;;6.14;2.71;;;;;;;19.10;44.23;99542.48;347550;105;1961939;-73
2021/06/05 05:32:47;;;;;;;7.37;2.81;;;;;;;19.25;44.07;99547.23;379806;106;1977974;-74
2021/06/05 05:33:55;;;;;;;4.91;2.66;;;;;;;19.15;44.39;99531.56;364528;110;1963964;-75
2021/06/05 05:35:18;;;;;;;5.13;2.47;;;;;;;19.20;44.47;99536.25;364127;109;1961783;-73